JLY1182 SBCY-SBSR
Flight info
| Callsign | JLY1182 |
|---|---|
| Flight time | N/A |
| Altitude | 39000 |
| Route | DIKUN DCT ASDOV |
| Aircraft | A20N/M-SDE2E3FGHIRWXY/LB1 |
Departure
| Time | N/A |
|---|---|
| Airport | Várzea Grande–Marechal Rondon International Airport (SBCY) |
Arrival
| Time | 2026-05-05 04:21 |
|---|---|
| Airport | Prof. Eribelto Manoel Reino State Airport (SBSR) |
| Time | Latitude | Longitude | Altitude | Speed | Heading |
|---|---|---|---|---|---|
| 2026-05-05 03:27 | -17.11616 | -54.26524 | 37569 ft | 473 kts | 128° |
| 2026-05-05 03:27 | -17.13414 | -54.23638 | 37730 ft | 473 kts | 128° |
| 2026-05-05 03:27 | -17.15208 | -54.20752 | 37873 ft | 474 kts | 128° |
| 2026-05-05 03:28 | -17.17000 | -54.17857 | 38033 ft | 474 kts | 128° |
| 2026-05-05 03:28 | -17.18787 | -54.14960 | 38210 ft | 474 kts | 128° |
| 2026-05-05 03:28 | -17.22317 | -54.09167 | 38213 ft | 473 kts | 128° |
| 2026-05-05 03:29 | -17.24106 | -54.06272 | 38322 ft | 474 kts | 128° |
| 2026-05-05 03:29 | -17.25896 | -54.03379 | 38499 ft | 473 kts | 128° |
| 2026-05-05 03:29 | -17.27680 | -54.00487 | 38645 ft | 473 kts | 128° |
| 2026-05-05 03:29 | -17.29469 | -53.97589 | 38787 ft | 472 kts | 130° |
| 2026-05-05 03:30 | -17.31404 | -53.94899 | 38890 ft | 467 kts | 136° |
| 2026-05-05 03:30 | -17.33472 | -53.92278 | 39002 ft | 467 kts | 135° |
| 2026-05-05 03:30 | -17.37604 | -53.87018 | 39073 ft | 467 kts | 135° |
| 2026-05-05 03:31 | -17.41729 | -53.81756 | 39074 ft | 467 kts | 135° |
| 2026-05-05 03:31 | -17.45853 | -53.76495 | 39070 ft | 468 kts | 135° |
| 2026-05-05 03:32 | -17.49976 | -53.71229 | 39074 ft | 467 kts | 135° |
| 2026-05-05 03:32 | -17.54097 | -53.65960 | 39075 ft | 468 kts | 135° |
| 2026-05-05 03:33 | -17.58221 | -53.60683 | 39079 ft | 468 kts | 136° |
| 2026-05-05 03:33 | -17.62342 | -53.55404 | 39070 ft | 468 kts | 135° |
| 2026-05-05 03:34 | -17.66471 | -53.50113 | 39078 ft | 469 kts | 135° |
| 2026-05-05 03:34 | -17.70602 | -53.44814 | 39083 ft | 469 kts | 135° |
| 2026-05-05 03:35 | -17.74724 | -53.39523 | 39077 ft | 469 kts | 135° |
| 2026-05-05 03:35 | -17.78823 | -53.34258 | 39089 ft | 469 kts | 135° |
| 2026-05-05 03:36 | -17.82948 | -53.28953 | 39088 ft | 470 kts | 136° |
| 2026-05-05 03:36 | -17.87041 | -53.23649 | 39090 ft | 467 kts | 136° |
| 2026-05-05 03:37 | -17.91176 | -53.18350 | 39094 ft | 469 kts | 136° |
| 2026-05-05 03:37 | -17.95301 | -53.13046 | 39097 ft | 469 kts | 136° |
| 2026-05-05 03:38 | -17.99419 | -53.07736 | 39095 ft | 469 kts | 136° |
| 2026-05-05 03:38 | -18.03538 | -53.02418 | 39099 ft | 469 kts | 136° |
| 2026-05-05 03:39 | -18.07652 | -52.97102 | 39093 ft | 468 kts | 136° |
| 2026-05-05 03:39 | -18.11762 | -52.91788 | 39092 ft | 468 kts | 136° |
| 2026-05-05 03:40 | -18.15866 | -52.86478 | 39097 ft | 468 kts | 136° |
| 2026-05-05 03:40 | -18.19963 | -52.81171 | 39088 ft | 467 kts | 136° |
| 2026-05-05 03:41 | -18.24033 | -52.75894 | 39087 ft | 467 kts | 136° |
| 2026-05-05 03:41 | -18.28125 | -52.70586 | 39089 ft | 467 kts | 136° |
| 2026-05-05 03:42 | -18.32216 | -52.65274 | 39085 ft | 467 kts | 136° |
| 2026-05-05 03:42 | -18.36303 | -52.59964 | 39086 ft | 467 kts | 136° |
| 2026-05-05 03:43 | -18.40396 | -52.54642 | 39092 ft | 468 kts | 136° |
| 2026-05-05 03:43 | -18.44489 | -52.49313 | 39101 ft | 468 kts | 136° |
| 2026-05-05 03:44 | -18.48584 | -52.43977 | 39106 ft | 468 kts | 136° |
| 2026-05-05 03:44 | -18.52675 | -52.38643 | 39107 ft | 468 kts | 136° |
| 2026-05-05 03:45 | -18.56741 | -52.33337 | 39103 ft | 468 kts | 136° |
| 2026-05-05 03:45 | -18.60857 | -52.27963 | 39108 ft | 468 kts | 136° |
| 2026-05-05 03:46 | -18.64914 | -52.22660 | 39112 ft | 468 kts | 137° |
| 2026-05-05 03:46 | -18.69004 | -52.17307 | 39101 ft | 468 kts | 137° |
| 2026-05-05 03:47 | -18.73089 | -52.11959 | 39103 ft | 468 kts | 137° |
| 2026-05-05 03:47 | -18.77169 | -52.06612 | 39097 ft | 468 kts | 137° |
| 2026-05-05 03:48 | -18.81243 | -52.01269 | 39093 ft | 467 kts | 137° |
| 2026-05-05 03:48 | -18.85321 | -51.95915 | 39105 ft | 467 kts | 137° |
| 2026-05-05 03:49 | -18.89396 | -51.90562 | 39093 ft | 468 kts | 137° |
| 2026-05-05 03:49 | -18.93468 | -51.85208 | 39088 ft | 467 kts | 137° |
| 2026-05-05 03:50 | -18.97536 | -51.79854 | 39089 ft | 467 kts | 137° |
| 2026-05-05 03:50 | -19.01599 | -51.74501 | 39084 ft | 466 kts | 137° |
| 2026-05-05 03:51 | -19.05632 | -51.69185 | 39091 ft | 467 kts | 137° |
| 2026-05-05 03:51 | -19.09680 | -51.63839 | 39081 ft | 464 kts | 137° |
| 2026-05-05 03:52 | -19.13735 | -51.58487 | 39082 ft | 467 kts | 137° |
| 2026-05-05 03:52 | -19.17785 | -51.53132 | 39079 ft | 465 kts | 137° |
| 2026-05-05 03:53 | -19.21821 | -51.47792 | 39068 ft | 464 kts | 137° |
| 2026-05-05 03:53 | -19.25843 | -51.42466 | 39074 ft | 463 kts | 137° |
| 2026-05-05 03:54 | -19.29858 | -51.37144 | 39055 ft | 462 kts | 137° |
| 2026-05-05 03:54 | -19.33868 | -51.31826 | 39058 ft | 462 kts | 138° |
| 2026-05-05 03:55 | -19.37872 | -51.26510 | 39054 ft | 461 kts | 138° |
| 2026-05-05 03:55 | -19.41868 | -51.21201 | 39053 ft | 461 kts | 138° |
| 2026-05-05 03:56 | -19.45186 | -51.16789 | 39061 ft | 461 kts | 138° |
| 2026-05-05 03:56 | -19.49855 | -51.10574 | 39062 ft | 461 kts | 138° |
| 2026-05-05 03:57 | -19.53823 | -51.05289 | 39063 ft | 461 kts | 138° |
| 2026-05-05 03:57 | -19.57822 | -50.99956 | 39066 ft | 462 kts | 138° |
| 2026-05-05 03:58 | -19.61143 | -50.95524 | 39058 ft | 462 kts | 138° |
| 2026-05-05 03:58 | -19.65142 | -50.90182 | 39083 ft | 462 kts | 138° |
| 2026-05-05 03:59 | -19.67129 | -50.87521 | 38865 ft | 459 kts | 138° |
| 2026-05-05 03:59 | -19.69114 | -50.84866 | 38279 ft | 460 kts | 138° |
| 2026-05-05 03:59 | -19.71115 | -50.82196 | 37392 ft | 464 kts | 138° |
| 2026-05-05 03:59 | -19.73143 | -50.79494 | 36383 ft | 472 kts | 137° |
| 2026-05-05 04:00 | -19.75202 | -50.76747 | 35380 ft | 480 kts | 136° |
| 2026-05-05 04:00 | -19.77288 | -50.73958 | 34496 ft | 484 kts | 136° |
| 2026-05-05 04:00 | -19.79379 | -50.71155 | 33594 ft | 486 kts | 135° |
| 2026-05-05 04:00 | -19.81484 | -50.68332 | 32672 ft | 487 kts | 135° |
| 2026-05-05 04:01 | -19.83595 | -50.65502 | 31747 ft | 489 kts | 134° |
| 2026-05-05 04:01 | -19.85715 | -50.62663 | 30839 ft | 491 kts | 133° |
| 2026-05-05 04:01 | -19.87838 | -50.59818 | 29978 ft | 492 kts | 133° |
| 2026-05-05 04:01 | -19.89945 | -50.56985 | 29393 ft | 485 kts | 132° |
| 2026-05-05 04:02 | -19.92019 | -50.54194 | 28779 ft | 478 kts | 132° |
| 2026-05-05 04:02 | -19.94067 | -50.51437 | 28168 ft | 472 kts | 132° |
| 2026-05-05 04:02 | -19.96093 | -50.48711 | 27569 ft | 467 kts | 132° |
| 2026-05-05 04:02 | -19.98096 | -50.46015 | 26965 ft | 462 kts | 132° |
| 2026-05-05 04:03 | -20.00078 | -50.43346 | 26358 ft | 458 kts | 132° |
| 2026-05-05 04:03 | -20.02049 | -50.40693 | 25734 ft | 455 kts | 132° |
| 2026-05-05 04:03 | -20.04002 | -50.38063 | 25143 ft | 451 kts | 132° |
| 2026-05-05 04:03 | -20.05908 | -50.35495 | 24544 ft | 448 kts | 131° |
| 2026-05-05 04:04 | -20.07830 | -50.32904 | 23962 ft | 444 kts | 131° |
| 2026-05-05 04:04 | -20.09735 | -50.30336 | 23330 ft | 442 kts | 131° |
| 2026-05-05 04:04 | -20.11786 | -50.27881 | 22761 ft | 432 kts | 139° |
| 2026-05-05 04:04 | -20.14026 | -50.25794 | 22192 ft | 425 kts | 143° |
| 2026-05-05 04:05 | -20.16254 | -50.23815 | 21627 ft | 421 kts | 143° |
| 2026-05-05 04:05 | -20.18484 | -50.21827 | 21065 ft | 416 kts | 143° |
| 2026-05-05 04:05 | -20.20693 | -50.19855 | 20492 ft | 413 kts | 143° |
| 2026-05-05 04:05 | -20.22883 | -50.17899 | 19896 ft | 410 kts | 143° |
| 2026-05-05 04:06 | -20.25059 | -50.15953 | 19357 ft | 406 kts | 143° |
| 2026-05-05 04:06 | -20.27216 | -50.14024 | 18811 ft | 403 kts | 143° |
| 2026-05-05 04:06 | -20.29357 | -50.12109 | 18237 ft | 401 kts | 142° |
| 2026-05-05 04:06 | -20.31482 | -50.10207 | 17659 ft | 396 kts | 142° |
| 2026-05-05 04:07 | -20.33576 | -50.08332 | 17117 ft | 391 kts | 142° |
| 2026-05-05 04:07 | -20.35654 | -50.06472 | 16572 ft | 388 kts | 142° |
| 2026-05-05 04:07 | -20.37706 | -50.04635 | 16034 ft | 384 kts | 142° |
| 2026-05-05 04:07 | -20.39744 | -50.02809 | 15498 ft | 381 kts | 141° |
| 2026-05-05 04:08 | -20.41766 | -50.00998 | 14931 ft | 379 kts | 141° |
| 2026-05-05 04:08 | -20.43776 | -49.99197 | 14438 ft | 375 kts | 141° |
| 2026-05-05 04:08 | -20.45770 | -49.97407 | 13910 ft | 373 kts | 141° |
| 2026-05-05 04:08 | -20.47752 | -49.95628 | 13353 ft | 370 kts | 141° |
| 2026-05-05 04:09 | -20.49708 | -49.93873 | 12845 ft | 366 kts | 141° |
| 2026-05-05 04:09 | -20.51646 | -49.92133 | 12336 ft | 362 kts | 140° |
| 2026-05-05 04:09 | -20.53563 | -49.90412 | 11829 ft | 358 kts | 140° |
| 2026-05-05 04:09 | -20.55463 | -49.88705 | 11328 ft | 355 kts | 140° |
| 2026-05-05 04:10 | -20.57348 | -49.87012 | 10837 ft | 353 kts | 140° |
| 2026-05-05 04:10 | -20.59209 | -49.85338 | 10523 ft | 345 kts | 139° |
| 2026-05-05 04:10 | -20.61005 | -49.83723 | 10390 ft | 331 kts | 139° |
| 2026-05-05 04:10 | -20.62728 | -49.82171 | 10270 ft | 317 kts | 139° |
| 2026-05-05 04:11 | -20.64379 | -49.80684 | 10147 ft | 304 kts | 139° |
| 2026-05-05 04:11 | -20.65979 | -49.79242 | 9840 ft | 299 kts | 139° |
| 2026-05-05 04:11 | -20.67568 | -49.77810 | 9422 ft | 298 kts | 139° |
| 2026-05-05 04:11 | -20.69150 | -49.76383 | 9020 ft | 297 kts | 139° |
| 2026-05-05 04:12 | -20.70726 | -49.74962 | 8631 ft | 296 kts | 139° |
| 2026-05-05 04:12 | -20.72296 | -49.73547 | 8253 ft | 294 kts | 138° |
| 2026-05-05 04:12 | -20.73854 | -49.72141 | 7871 ft | 293 kts | 138° |
| 2026-05-05 04:12 | -20.75409 | -49.70739 | 7495 ft | 291 kts | 138° |
| 2026-05-05 04:13 | -20.76923 | -49.69375 | 7365 ft | 277 kts | 138° |
| 2026-05-05 04:13 | -20.78351 | -49.68087 | 7245 ft | 260 kts | 138° |
| 2026-05-05 04:13 | -20.79696 | -49.66876 | 7090 ft | 246 kts | 137° |
| 2026-05-05 04:13 | -20.80976 | -49.65719 | 6806 ft | 244 kts | 137° |
| 2026-05-05 04:14 | -20.82281 | -49.64537 | 6543 ft | 242 kts | 137° |
| 2026-05-05 04:14 | -20.83564 | -49.63374 | 6257 ft | 242 kts | 137° |
| 2026-05-05 04:14 | -20.84831 | -49.62229 | 5989 ft | 241 kts | 137° |
| 2026-05-05 04:14 | -20.86107 | -49.61076 | 5629 ft | 240 kts | 137° |
| 2026-05-05 04:15 | -20.87374 | -49.59932 | 5335 ft | 233 kts | 137° |
| 2026-05-05 04:15 | -20.88573 | -49.58853 | 5200 ft | 218 kts | 136° |
| 2026-05-05 04:15 | -20.89680 | -49.57857 | 5108 ft | 195 kts | 136° |
| 2026-05-05 04:15 | -20.90661 | -49.56976 | 4950 ft | 175 kts | 135° |
| 2026-05-05 04:16 | -20.91559 | -49.56156 | 4749 ft | 163 kts | 131° |
| 2026-05-05 04:16 | -20.92030 | -49.55187 | 4522 ft | 139 kts | 91° |
| 2026-05-05 04:16 | -20.91830 | -49.54218 | 4194 ft | 135 kts | 55° |
| 2026-05-05 04:16 | -20.91239 | -49.53441 | 3816 ft | 137 kts | 48° |
| 2026-05-05 04:17 | -20.90633 | -49.52675 | 3476 ft | 132 kts | 49° |
| 2026-05-05 04:17 | -20.90035 | -49.51899 | 3347 ft | 147 kts | 49° |
| 2026-05-05 04:17 | -20.89330 | -49.50997 | 3501 ft | 161 kts | 48° |
| 2026-05-05 04:17 | -20.88668 | -49.50148 | 3425 ft | 138 kts | 48° |
| 2026-05-05 04:18 | -20.88026 | -49.49304 | 3444 ft | 154 kts | 49° |
| 2026-05-05 04:18 | -20.87408 | -49.48454 | 3455 ft | 137 kts | 53° |
| 2026-05-05 04:18 | -20.86884 | -49.47610 | 3365 ft | 135 kts | 54° |
| 2026-05-05 04:18 | -20.86350 | -49.46798 | 3222 ft | 133 kts | 51° |
| 2026-05-05 04:19 | -20.85784 | -49.46026 | 3113 ft | 134 kts | 49° |
| 2026-05-05 04:19 | -20.85184 | -49.45263 | 2952 ft | 134 kts | 48° |
| 2026-05-05 04:19 | -20.84574 | -49.44492 | 2723 ft | 133 kts | 49° |
| 2026-05-05 04:19 | -20.83989 | -49.43728 | 2473 ft | 134 kts | 50° |
| 2026-05-05 04:20 | -20.83389 | -49.42940 | 2253 ft | 138 kts | 52° |
| 2026-05-05 04:20 | -20.82788 | -49.42129 | 2041 ft | 140 kts | 52° |
| 2026-05-05 04:20 | -20.82196 | -49.41339 | 1805 ft | 137 kts | 52° |
| 2026-05-05 04:20 | -20.81631 | -49.40589 | 1756 ft | 110 kts | 51° |
| 2026-05-05 04:21 | -20.81366 | -49.40234 | 1760 ft | 24 kts | 51° |
| 2026-05-05 04:21 | -20.81261 | -49.40099 | 1763 ft | 20 kts | 36° |
| 2026-05-05 04:21 | -20.81203 | -49.40123 | 1760 ft | 9 kts | 287° |
| 2026-05-05 04:21 | -20.81229 | -49.40194 | 1762 ft | 12 kts | 234° |
| 2026-05-05 04:22 | -20.81285 | -49.40270 | 1762 ft | 13 kts | 239° |
| 2026-05-05 04:22 | -20.81245 | -49.40351 | 1760 ft | 14 kts | 323° |
| 2026-05-05 04:22 | -20.81183 | -49.40402 | 1762 ft | 14 kts | 323° |
| 2026-05-05 04:22 | -20.81102 | -49.40458 | 1762 ft | 14 kts | 354° |
| 2026-05-05 04:23 | -20.81085 | -49.40448 | 1760 ft | 1 kts | 58° |
| 2026-05-05 04:23 | -20.81085 | -49.40447 | 1760 ft | 0 kts | 63° |